Time;durP1;ratioP1;P1;durP2;ratioP2;P2;SDS_P1;SDS_P2;PMS_P1;PMS_P2;Temp;Humidity;BMP_temperature;BMP_pressure;BME280_temperature;BME280_humidity;BME280_pressure;Samples;Min_cycle;Max_cycle;Signal;HPM_P1;HPM_P2
2023/07/15 00:00:50;;;;;;;0.32;0.10;;;23.80;91.10;;;;;;4993455;28;20024;-73
2023/07/15 00:03:18;;;;;;;0.70;0.45;;;23.80;91.10;;;;;;4993107;28;20038;-74
2023/07/15 00:05:45;;;;;;;0.93;0.35;;;23.70;91.10;;;;;;4992966;28;20126;-74
2023/07/15 00:08:12;;;;;;;0.32;0.32;;;23.70;91.20;;;;;;4992161;28;20510;-74
2023/07/15 00:10:42;;;;;;;0.55;0.15;;;23.70;91.20;;;;;;4993148;28;20117;-74
2023/07/15 00:13:12;;;;;;;0.52;0.52;;;23.70;91.20;;;;;;4991946;28;20121;-75
2023/07/15 00:15:40;;;;;;;0.50;0.40;;;23.70;91.10;;;;;;4992990;28;20054;-74
2023/07/15 00:18:06;;;;;;;0.15;0.15;;;23.80;91.00;;;;;;4992920;28;20026;-74
2023/07/15 00:20:35;;;;;;;0.22;0.22;;;23.80;91.20;;;;;;4993194;28;20027;-74
2023/07/15 00:23:01;;;;;;;0.10;0.10;;;23.70;91.10;;;;;;4993194;28;20034;-75
2023/07/15 00:25:27;;;;;;;1.67;0.45;;;23.60;91.20;;;;;;4992918;28;20118;-74
2023/07/15 00:27:53;;;;;;;0.45;0.20;;;23.60;91.40;;;;;;4991644;28;20109;-73
2023/07/15 00:30:21;;;;;;;0.55;0.15;;;23.70;91.40;;;;;;4991824;28;20019;-73
2023/07/15 00:32:49;;;;;;;0.00;0.00;;;23.80;91.20;;;;;;4992781;28;20439;-73
2023/07/15 00:35:28;;;;;;;0.10;0.10;;;23.70;91.80;;;;;;4993199;28;20146;-75
2023/07/15 00:37:58;;;;;;;0.20;0.03;;;23.60;92.10;;;;;;4991614;28;20062;-74
2023/07/15 00:40:26;;;;;;;0.17;0.17;;;23.80;92.40;;;;;;4993105;28;20038;-73
2023/07/15 00:43:30;;;;;;;0.00;0.00;;;23.70;92.80;;;;;;4991811;28;20036;-74
2023/07/15 00:46:19;;;;;;;0.00;0.00;;;23.60;93.50;;;;;;4991426;28;20118;-74
2023/07/15 00:48:53;;;;;;;0.00;0.00;;;23.50;94.10;;;;;;4992691;28;20110;-73
2023/07/15 00:51:20;;;;;;;8.07;0.50;;;23.50;94.70;;;;;;4991017;28;20133;-74
2023/07/15 00:53:46;;;;;;;0.47;0.47;;;23.20;94.80;;;;;;4992722;28;20034;-74
2023/07/15 00:56:13;;;;;;;0.05;0.05;;;23.30;94.90;;;;;;4992876;28;20054;-74
2023/07/15 00:58:39;;;;;;;0.00;0.00;;;23.40;95.30;;;;;;4992509;28;20384;-74
2023/07/15 01:01:06;;;;;;;0.00;0.00;;;23.50;95.20;;;;;;4992549;28;20026;-73
2023/07/15 01:03:32;;;;;;;0.00;0.00;;;23.60;95.60;;;;;;4991501;28;20372;-74
2023/07/15 01:05:58;;;;;;;0.00;0.00;;;23.60;95.50;;;;;;4992702;28;20101;-74
2023/07/15 01:08:24;;;;;;;0.00;0.00;;;23.70;95.20;;;;;;4992761;28;20070;-74
2023/07/15 01:10:50;;;;;;;0.00;0.00;;;23.50;96.70;;;;;;4991216;28;20030;-74
2023/07/15 01:13:17;;;;;;;6.80;5.93;;;23.50;97.00;;;;;;4992786;28;20034;-74
2023/07/15 01:15:45;;;;;;;0.00;0.00;;;23.50;97.10;;;;;;4991166;28;20049;-73
2023/07/15 01:18:12;;;;;;;0.70;0.32;;;23.50;97.60;;;;;;4994651;28;20057;-72
2023/07/15 01:20:37;;;;;;;0.00;0.00;;;23.40;97.30;;;;;;4994890;28;20475;-73
2023/07/15 01:23:03;;;;;;;0.10;0.10;;;23.20;97.90;;;;;;4978677;28;20023;-72
2023/07/15 01:25:29;;;;;;;0.00;0.00;;;23.20;97.80;;;;;;4994809;28;20383;-72
2023/07/15 01:27:54;;;;;;;0.00;0.00;;;23.10;98.50;;;;;;4995654;28;20030;-72
2023/07/15 01:30:20;;;;;;;0.00;0.00;;;22.90;98.80;;;;;;4995926;28;20031;-74
2023/07/15 01:32:46;;;;;;;0.00;0.00;;;22.80;99.30;;;;;;4995854;28;20038;-73
2023/07/15 01:35:12;;;;;;;0.00;0.00;;;22.80;99.90;;;;;;4994724;28;20022;-75
2023/07/15 01:37:38;;;;;;;0.00;0.00;;;22.70;99.90;;;;;;4994450;28;20057;-74
2023/07/15 01:40:06;;;;;;;0.00;0.00;;;22.80;99.90;;;;;;4994410;28;20025;-73
2023/07/15 01:42:32;;;;;;;0.00;0.00;;;22.70;99.90;;;;;;4994604;28;20034;-74
2023/07/15 01:44:58;;;;;;;0.00;0.00;;;22.70;99.90;;;;;;4994141;28;20022;-74
2023/07/15 01:47:23;;;;;;;0.00;0.00;;;22.80;99.90;;;;;;4994377;28;20088;-74
2023/07/15 01:49:49;;;;;;;0.00;0.00;;;22.70;99.90;;;;;;4995456;28;20029;-72
2023/07/15 01:52:15;;;;;;;0.00;0.00;;;22.60;99.90;;;;;;4994188;28;20066;-73
2023/07/15 01:54:41;;;;;;;0.00;0.00;;;22.60;99.90;;;;;;4994368;28;20169;-73
2023/07/15 01:57:06;;;;;;;0.00;0.00;;;22.50;99.90;;;;;;4995295;28;20039;-73
2023/07/15 01:59:32;;;;;;;0.00;0.00;;;22.50;99.90;;;;;;4993944;28;20022;-74
2023/07/15 02:01:58;;;;;;;0.00;0.00;;;22.60;99.90;;;;;;4993757;28;20429;-72
2023/07/15 02:04:24;;;;;;;0.00;0.00;;;22.60;99.90;;;;;;4995545;28;20030;-74
2023/07/15 02:06:50;;;;;;;0.57;0.57;;;22.70;99.90;;;;;;4995245;28;20471;-73
2023/07/15 02:09:16;;;;;;;0.08;0.08;;;22.50;99.90;;;;;;4995280;28;20026;-74
2023/07/15 02:11:42;;;;;;;0.00;0.00;;;22.40;99.90;;;;;;4995582;28;20440;-74
2023/07/15 02:14:09;;;;;;;0.20;0.20;;;22.10;99.90;;;;;;4993222;28;20484;-74
2023/07/15 02:16:35;;;;;;;0.47;0.10;;;22.20;99.90;;;;;;4993952;28;20031;-74
2023/07/15 02:19:01;;;;;;;0.00;0.00;;;22.10;99.90;;;;;;4993666;28;20027;-74
2023/07/15 02:21:27;;;;;;;0.00;0.00;;;22.10;99.90;;;;;;4993786;28;20507;-74
2023/07/15 02:23:53;;;;;;;0.15;0.15;;;22.00;99.90;;;;;;4994543;28;20114;-74
2023/07/15 02:26:19;;;;;;;3.83;0.93;;;21.90;99.90;;;;;;4993633;28;20027;-74
2023/07/15 02:28:46;;;;;;;0.00;0.00;;;21.90;99.90;;;;;;4994557;28;20037;-74
2023/07/15 02:31:12;;;;;;;0.00;0.00;;;22.00;99.90;;;;;;4993555;28;20022;-74
2023/07/15 02:33:40;;;;;;;0.55;0.55;;;21.90;99.90;;;;;;4993592;28;20096;-74
2023/07/15 02:36:06;;;;;;;1.55;1.45;;;21.90;99.90;;;;;;4994595;28;20045;-74
2023/07/15 02:38:32;;;;;;;0.00;0.00;;;21.80;99.90;;;;;;4994581;28;20468;-74
2023/07/15 02:40:58;;;;;;;0.00;0.00;;;21.90;99.90;;;;;;4993420;28;20046;-74
2023/07/15 02:43:23;;;;;;;0.00;0.00;;;21.90;99.90;;;;;;4992847;28;20023;-73
2023/07/15 02:45:52;;;;;;;0.05;0.05;;;21.90;99.90;;;;;;4994352;28;20506;-75
2023/07/15 02:48:22;;;;;;;0.00;0.00;;;22.10;99.90;;;;;;4993628;28;20030;-74
2023/07/15 02:50:54;;;;;;;0.00;0.00;;;22.10;99.90;;;;;;4993299;28;20125;-74
2023/07/15 02:53:20;;;;;;;7.22;0.47;;;22.10;99.90;;;;;;4993034;28;20038;-74
2023/07/15 02:55:46;;;;;;;0.00;0.00;;;22.10;99.90;;;;;;4994409;28;20118;-74
2023/07/15 02:58:13;;;;;;;0.30;0.30;;;22.10;99.90;;;;;;4985684;28;20031;-74
2023/07/15 03:00:39;;;;;;;0.00;0.00;;;22.00;99.90;;;;;;4993071;28;20046;-74
2023/07/15 03:03:04;;;;;;;0.03;0.03;;;22.10;99.90;;;;;;4994291;28;20030;-74
2023/07/15 03:05:32;;;;;;;0.00;0.00;;;22.20;99.90;;;;;;4994292;28;20106;-74
2023/07/15 03:07:58;;;;;;;0.10;0.10;;;22.10;99.90;;;;;;4994266;28;20393;-74
2023/07/15 03:10:23;;;;;;;0.00;0.00;;;22.00;99.90;;;;;;4992507;28;20038;-74
2023/07/15 03:12:49;;;;;;;0.00;0.00;;;22.10;99.90;;;;;;4992700;28;20133;-74
2023/07/15 03:15:15;;;;;;;0.00;0.00;;;21.90;99.90;;;;;;4993968;28;20026;-74
2023/07/15 03:17:41;;;;;;;0.00;0.00;;;22.10;99.90;;;;;;4994108;28;20034;-74
2023/07/15 03:20:20;;;;;;;0.00;0.00;;;22.30;99.90;;;;;;4993840;28;20041;-74
2023/07/15 03:22:49;;;;;;;0.20;0.20;;;22.30;99.90;;;;;;4993988;28;20382;-74
2023/07/15 03:25:15;;;;;;;0.05;0.05;;;22.00;99.90;;;;;;4994352;28;20025;-74
2023/07/15 03:27:41;;;;;;;0.00;0.00;;;22.10;99.90;;;;;;4992281;28;20112;-74
2023/07/15 03:30:08;;;;;;;0.00;0.00;;;22.30;99.90;;;;;;4992529;28;20448;-74
2023/07/15 03:32:38;;;;;;;0.10;0.10;;;22.20;99.90;;;;;;4992241;28;20042;-75
2023/07/15 03:35:04;;;;;;;0.00;0.00;;;22.10;99.90;;;;;;4993705;28;20096;-74
2023/07/15 03:37:32;;;;;;;0.10;0.10;;;22.00;99.90;;;;;;4992330;28;20023;-74
2023/07/15 03:39:58;;;;;;;0.00;0.00;;;22.00;99.90;;;;;;4991725;28;20046;-75
2023/07/15 03:42:25;;;;;;;0.00;0.00;;;22.00;99.90;;;;;;4993230;28;20031;-73
2023/07/15 03:44:51;;;;;;;0.00;0.00;;;21.90;99.90;;;;;;4993606;28;20049;-73
2023/07/15 03:47:17;;;;;;;0.00;0.00;;;21.80;99.90;;;;;;4993568;28;20471;-74
2023/07/15 03:49:45;;;;;;;0.10;0.10;;;21.80;99.90;;;;;;4993344;28;20025;-74
2023/07/15 03:52:11;;;;;;;0.10;0.10;;;21.90;99.90;;;;;;4993017;28;20026;-74
2023/07/15 03:54:37;;;;;;;0.00;0.00;;;21.90;99.90;;;;;;4992685;28;20032;-74
2023/07/15 03:57:03;;;;;;;0.00;0.00;;;22.00;99.90;;;;;;4991704;28;20026;-74
2023/07/15 03:59:29;;;;;;;0.00;0.00;;;22.10;99.90;;;;;;4993195;28;20026;-74
2023/07/15 04:01:55;;;;;;;0.00;0.00;;;22.00;99.90;;;;;;4993172;28;20022;-74
2023/07/15 04:04:21;;;;;;;0.00;0.00;;;22.20;99.90;;;;;;4993324;28;20029;-75
2023/07/15 04:06:49;;;;;;;0.10;0.10;;;22.20;99.90;;;;;;4992983;28;20518;-74
2023/07/15 04:09:16;;;;;;;0.05;0.05;;;22.40;99.90;;;;;;4993227;28;20475;-74
2023/07/15 04:11:43;;;;;;;0.00;0.00;;;22.10;99.90;;;;;;4992714;28;20394;-74
2023/07/15 04:14:09;;;;;;;0.00;0.00;;;21.90;99.90;;;;;;4993078;28;20029;-74
2023/07/15 04:16:35;;;;;;;0.00;0.00;;;21.80;99.90;;;;;;4993274;28;20050;-74
2023/07/15 04:19:01;;;;;;;0.40;0.40;;;22.10;99.90;;;;;;4993011;28;20014;-74
2023/07/15 04:21:26;;;;;;;2.03;0.55;;;21.90;99.90;;;;;;4991806;28;20456;-74
2023/07/15 04:23:53;;;;;;;0.00;0.00;;;21.90;99.90;;;;;;4993123;28;20061;-73
2023/07/15 04:26:23;;;;;;;0.00;0.00;;;22.00;99.90;;;;;;4991951;28;20069;-75
2023/07/15 04:28:49;;;;;;;0.00;0.00;;;21.90;99.90;;;;;;4993075;28;20022;-73
2023/07/15 04:31:16;;;;;;;0.32;0.32;;;22.40;99.90;;;;;;4992857;28;20030;-74
2023/07/15 04:33:46;;;;;;;0.00;0.00;;;22.30;99.90;;;;;;4993260;28;20038;-74
2023/07/15 04:36:13;;;;;;;0.00;0.00;;;22.30;99.90;;;;;;4992899;28;20105;-74
2023/07/15 04:38:39;;;;;;;0.52;0.52;;;22.30;99.90;;;;;;4991621;28;20391;-72
2023/07/15 04:41:04;;;;;;;0.00;0.00;;;22.10;99.90;;;;;;4992757;28;20030;-74
2023/07/15 04:43:31;;;;;;;0.10;0.10;;;22.20;99.90;;;;;;4992892;28;20022;-73
2023/07/15 04:45:57;;;;;;;0.20;0.20;;;22.10;99.90;;;;;;4991334;28;20479;-74
2023/07/15 04:48:23;;;;;;;0.00;0.00;;;22.00;99.90;;;;;;4993171;28;20541;-74
2023/07/15 04:50:52;;;;;;;0.00;0.00;;;22.00;99.90;;;;;;4991706;28;20118;-74
2023/07/15 04:53:18;;;;;;;0.98;0.32;;;21.90;99.90;;;;;;4996456;28;20664;-73
2023/07/15 04:55:48;;;;;;;0.08;0.05;;;21.70;99.90;;;;;;4996799;28;20101;-73
2023/07/15 04:58:17;;;;;;;0.20;0.10;;;21.90;99.90;;;;;;4995041;28;20117;-73
2023/07/15 05:00:45;;;;;;;0.08;0.08;;;22.00;99.90;;;;;;4996457;28;20105;-73
2023/07/15 05:03:12;;;;;;;0.10;0.10;;;22.00;99.90;;;;;;4996601;28;20080;-73
2023/07/15 05:05:39;;;;;;;0.00;0.00;;;22.10;99.90;;;;;;4996517;28;20169;-73
2023/07/15 05:08:16;;;;;;;0.30;0.30;;;21.60;99.90;;;;;;4996158;28;20033;-74
2023/07/15 05:10:42;;;;;;;2.53;0.30;;;21.60;99.90;;;;;;4996175;28;20475;-73
2023/07/15 05:13:08;;;;;;;1.75;1.38;;;21.40;99.90;;;;;;4996123;28;20391;-73
2023/07/15 05:15:36;;;;;;;0.32;0.30;;;21.30;99.90;;;;;;4996287;28;20037;-72
2023/07/15 05:18:04;;;;;;;0.00;0.00;;;21.40;99.90;;;;;;4996120;28;20494;-72
2023/07/15 05:20:31;;;;;;;0.00;0.00;;;21.50;99.90;;;;;;4996175;28;20022;-73
2023/07/15 05:22:57;;;;;;;0.00;0.00;;;21.70;99.90;;;;;;4996019;28;20383;-73
2023/07/15 05:25:23;;;;;;;0.00;0.00;;;21.80;99.90;;;;;;4995940;28;20034;-72
2023/07/15 05:27:49;;;;;;;0.10;0.10;;;21.90;99.90;;;;;;4996205;28;20025;-74
2023/07/15 05:30:15;;;;;;;0.00;0.00;;;21.90;99.90;;;;;;4995998;28;20058;-72
2023/07/15 05:32:41;;;;;;;0.00;0.00;;;22.00;99.90;;;;;;4995958;28;20072;-73
2023/07/15 05:35:07;;;;;;;0.30;0.30;;;22.10;99.90;;;;;;4996121;28;20050;-73
2023/07/15 05:37:33;;;;;;;0.00;0.00;;;22.20;99.90;;;;;;4995562;28;20058;-74
2023/07/15 05:39:59;;;;;;;0.70;0.47;;;22.20;99.90;;;;;;4995790;28;20517;-73
2023/07/15 05:42:25;;;;;;;0.00;0.00;;;22.00;99.90;;;;;;4995661;28;20025;-72
2023/07/15 05:44:50;;;;;;;0.00;0.00;;;22.00;99.90;;;;;;4995740;28;20442;-73
2023/07/15 05:47:16;;;;;;;0.00;0.00;;;21.90;99.90;;;;;;4995620;28;20030;-71
2023/07/15 05:49:42;;;;;;;0.00;0.00;;;22.20;99.90;;;;;;4994229;28;20030;-72
2023/07/15 05:52:08;;;;;;;0.17;0.17;;;22.00;99.90;;;;;;4995276;28;20042;-73
2023/07/15 05:54:33;;;;;;;0.00;0.00;;;21.80;99.90;;;;;;4995642;28;20045;-73
2023/07/15 05:57:00;;;;;;;0.00;0.00;;;21.60;99.90;;;;;;4994250;28;20019;-73
2023/07/15 05:59:25;;;;;;;0.10;0.10;;;21.60;99.90;;;;;;4995271;28;20426;-75
2023/07/15 06:01:51;;;;;;;0.00;0.00;;;21.80;99.90;;;;;;4995561;28;20092;-75
2023/07/15 06:04:17;;;;;;;0.25;0.25;;;22.00;99.90;;;;;;4994732;28;20356;-75
2023/07/15 06:06:42;;;;;;;0.15;0.15;;;22.10;99.90;;;;;;4995201;28;20033;-74
2023/07/15 06:09:08;;;;;;;0.30;0.30;;;21.80;99.90;;;;;;4994061;28;20034;-74
2023/07/15 06:11:34;;;;;;;0.57;0.57;;;22.10;99.90;;;;;;4995144;28;20038;-74
2023/07/15 06:14:03;;;;;;;0.17;0.17;;;21.80;99.90;;;;;;4994804;28;20037;-74
2023/07/15 06:16:29;;;;;;;0.47;0.43;;;21.60;99.90;;;;;;4995268;28;20038;-72
2023/07/15 06:18:55;;;;;;;0.10;0.10;;;21.70;99.90;;;;;;4995060;28;20022;-72
2023/07/15 06:21:21;;;;;;;0.35;0.25;;;21.90;99.90;;;;;;4994767;28;20031;-72
2023/07/15 06:23:47;;;;;;;0.00;0.00;;;22.00;99.90;;;;;;4994858;28;20061;-72
2023/07/15 06:26:13;;;;;;;0.00;0.00;;;21.90;99.90;;;;;;4994945;28;20145;-72
2023/07/15 06:28:39;;;;;;;1.08;0.40;;;22.00;99.90;;;;;;4995056;28;20033;-72
2023/07/15 06:31:06;;;;;;;0.55;0.52;;;22.20;99.90;;;;;;4994692;28;20052;-72
2023/07/15 06:33:36;;;;;;;0.10;0.10;;;22.30;99.90;;;;;;4994967;28;20050;-72
2023/07/15 06:36:03;;;;;;;3.78;0.17;;;22.00;99.90;;;;;;4994550;28;20026;-72
2023/07/15 06:38:29;;;;;;;0.75;0.47;;;22.20;99.90;;;;;;4994669;28;20022;-73
2023/07/15 06:40:56;;;;;;;0.57;0.47;;;22.10;99.90;;;;;;4993213;28;20057;-73
2023/07/15 06:43:22;;;;;;;0.25;0.25;;;21.80;99.90;;;;;;4994424;28;20464;-73
2023/07/15 06:45:48;;;;;;;0.10;0.10;;;22.00;99.90;;;;;;4994429;28;20096;-73
2023/07/15 06:48:14;;;;;;;0.00;0.00;;;21.90;99.90;;;;;;4994544;28;20026;-73
2023/07/15 06:50:40;;;;;;;0.00;0.00;;;22.10;99.90;;;;;;4994233;28;20069;-74
2023/07/15 06:53:06;;;;;;;0.35;0.35;;;22.20;99.90;;;;;;4994127;28;20141;-73
2023/07/15 06:55:32;;;;;;;0.57;0.50;;;22.10;99.90;;;;;;4994518;28;20113;-73
2023/07/15 06:57:58;;;;;;;0.13;0.10;;;22.00;99.90;;;;;;4992837;28;20560;-74
2023/07/15 07:00:24;;;;;;;0.52;0.47;;;21.90;99.90;;;;;;4994170;28;20031;-73
2023/07/15 07:02:50;;;;;;;0.17;0.13;;;22.00;99.90;;;;;;4998236;28;20067;-73
2023/07/15 07:05:17;;;;;;;0.68;0.55;;;21.90;99.90;;;;;;4996666;28;20034;-73
2023/07/15 07:07:43;;;;;;;0.00;0.00;;;21.80;99.90;;;;;;4995569;28;20038;-73
2023/07/15 07:10:09;;;;;;;2.10;1.45;;;22.00;99.90;;;;;;4992988;28;20041;-73
2023/07/15 07:12:35;;;;;;;0.30;0.13;;;21.90;99.90;;;;;;5008069;28;20049;-74
2023/07/15 07:15:01;;;;;;;0.20;0.20;;;21.90;99.90;;;;;;5005432;28;20030;-74
2023/07/15 07:17:28;;;;;;;1.17;0.50;;;22.10;99.90;;;;;;4998749;28;20027;-74
2023/07/15 07:19:54;;;;;;;0.00;0.00;;;21.80;99.90;;;;;;4995115;28;20521;-74
2023/07/15 07:22:20;;;;;;;0.00;0.00;;;21.90;99.90;;;;;;4993079;28;20101;-72
2023/07/15 07:24:46;;;;;;;0.10;0.10;;;21.80;99.90;;;;;;5007698;28;20060;-73
2023/07/15 07:27:12;;;;;;;0.05;0.05;;;22.00;99.90;;;;;;5004034;28;20030;-73
2023/07/15 07:29:39;;;;;;;0.22;0.22;;;21.90;99.90;;;;;;4996793;28;20125;-72
2023/07/15 07:32:05;;;;;;;1.35;0.47;;;22.10;99.90;;;;;;4994016;28;20510;-73
2023/07/15 07:34:33;;;;;;;1.55;0.80;;;21.90;99.90;;;;;;4994008;28;20471;-73
2023/07/15 07:36:58;;;;;;;1.48;0.47;;;22.00;99.90;;;;;;5007004;28;20034;-74
2023/07/15 07:39:24;;;;;;;0.15;0.13;;;22.10;99.90;;;;;;5000436;28;20097;-74
2023/07/15 07:41:50;;;;;;;0.30;0.28;;;22.10;99.90;;;;;;4995811;28;20077;-74
2023/07/15 07:44:16;;;;;;;0.00;0.00;;;22.30;99.90;;;;;;4993057;28;20054;-73
2023/07/15 07:46:42;;;;;;;0.10;0.10;;;22.40;99.90;;;;;;5008508;28;20156;-74
2023/07/15 07:49:07;;;;;;;0.70;0.20;;;22.80;99.90;;;;;;5001804;28;20038;-73
2023/07/15 07:51:33;;;;;;;1.30;0.82;;;22.40;99.90;;;;;;5001366;28;20076;-73
2023/07/15 07:53:59;;;;;;;0.10;0.10;;;22.30;99.90;;;;;;4996481;28;20479;-73
2023/07/15 07:56:24;;;;;;;0.15;0.10;;;22.50;99.90;;;;;;5003449;28;20026;-73
2023/07/15 07:58:57;;;;;;;0.65;0.52;;;22.60;99.90;;;;;;5007317;28;20026;-73
2023/07/15 08:01:26;;;;;;;0.95;0.35;;;22.80;99.90;;;;;;5005896;28;20030;-73
2023/07/15 08:03:54;;;;;;;1.27;0.32;;;22.90;99.90;;;;;;5000702;28;20490;-73
2023/07/15 08:06:24;;;;;;;1.30;0.40;;;22.80;99.90;;;;;;5001858;28;20475;-73
2023/07/15 08:08:50;;;;;;;0.00;0.00;;;22.80;99.90;;;;;;4994991;28;20033;-74
2023/07/15 08:11:16;;;;;;;2.45;0.32;;;22.70;99.90;;;;;;4994305;28;20058;-74
2023/07/15 08:13:41;;;;;;;0.52;0.10;;;22.70;99.90;;;;;;5000779;28;20038;-73
2023/07/15 08:16:36;;;;;;;0.00;0.00;;;22.80;99.90;;;;;;4999070;28;20026;-73
2023/07/15 08:19:04;;;;;;;0.52;0.30;;;23.00;99.90;;;;;;4991450;28;20115;-74
2023/07/15 08:21:30;;;;;;;2.35;1.65;;;23.00;99.90;;;;;;4991820;28;20097;-72
2023/07/15 08:23:56;;;;;;;3.08;0.80;;;23.00;99.90;;;;;;4993477;28;20062;-72
2023/07/15 08:26:23;;;;;;;1.50;0.98;;;22.70;99.90;;;;;;5001439;28;20529;-73
2023/07/15 08:28:49;;;;;;;0.00;0.00;;;22.50;99.90;;;;;;5005579;28;20079;-72
2023/07/15 08:31:15;;;;;;;1.75;1.05;;;22.70;99.90;;;;;;4997067;28;20113;-74
2023/07/15 08:33:42;;;;;;;0.52;0.47;;;22.80;99.90;;;;;;5005138;28;20081;-74
2023/07/15 08:36:08;;;;;;;0.45;0.10;;;22.40;99.90;;;;;;4996385;28;20829;-74
2023/07/15 08:38:34;;;;;;;0.22;0.22;;;22.50;99.90;;;;;;5006648;28;20355;-74
2023/07/15 08:41:01;;;;;;;0.57;0.40;;;22.70;99.90;;;;;;5001591;28;20022;-73
2023/07/15 08:43:30;;;;;;;0.30;0.30;;;22.90;99.90;;;;;;4996678;28;20141;-74
2023/07/15 08:46:00;;;;;;;1.35;0.55;;;22.60;99.90;;;;;;4998504;28;20520;-74
2023/07/15 08:48:27;;;;;;;9.00;0.57;;;22.70;99.90;;;;;;4998501;28;20070;-74
2023/07/15 08:50:56;;;;;;;0.73;0.20;;;22.70;99.90;;;;;;5000223;28;20042;-74
2023/07/15 08:53:26;;;;;;;1.33;0.73;;;22.70;99.90;;;;;;4996860;28;20038;-73
2023/07/15 08:55:55;;;;;;;0.20;0.20;;;22.70;99.90;;;;;;4995769;28;20101;-76
2023/07/15 08:58:21;;;;;;;0.10;0.10;;;22.90;99.90;;;;;;5006077;28;20029;-73
2023/07/15 09:00:48;;;;;;;1.58;0.57;;;23.10;99.90;;;;;;5011235;28;20072;-71
2023/07/15 09:03:14;;;;;;;0.20;0.20;;;23.00;99.90;;;;;;5006274;28;20049;-74
2023/07/15 09:05:39;;;;;;;0.30;0.30;;;22.80;99.90;;;;;;5003075;28;20014;-75
2023/07/15 09:08:13;;;;;;;0.43;0.40;;;22.70;99.90;;;;;;5003270;28;20035;-75
2023/07/15 09:10:56;;;;;;;0.52;0.52;;;22.70;99.90;;;;;;4981301;28;20034;-71
2023/07/15 09:13:25;;;;;;;0.22;0.22;;;23.10;99.90;;;;;;5010056;28;20095;-71
2023/07/15 09:15:52;;;;;;;0.82;0.30;;;23.20;99.90;;;;;;5004885;28;20030;-74
2023/07/15 09:18:19;;;;;;;1.15;0.60;;;23.00;99.90;;;;;;5000351;28;20038;-72
2023/07/15 09:20:45;;;;;;;1.00;0.30;;;23.10;99.90;;;;;;4996785;28;20153;-74
2023/07/15 09:23:11;;;;;;;0.45;0.45;;;23.50;99.90;;;;;;5002844;28;20105;-74
2023/07/15 09:25:37;;;;;;;2.00;0.60;;;23.60;99.90;;;;;;5007596;28;20113;-72
2023/07/15 09:28:07;;;;;;;0.20;0.20;;;23.40;99.90;;;;;;4999898;28;20435;-73
2023/07/15 09:30:33;;;;;;;0.10;0.10;;;23.60;99.90;;;;;;4997203;28;20049;-73
2023/07/15 09:32:59;;;;;;;1.10;0.80;;;23.60;99.90;;;;;;4997863;28;20471;-71
2023/07/15 09:35:39;;;;;;;3.78;0.57;;;23.40;99.90;;;;;;5004147;28;20025;-72
2023/07/15 09:38:10;;;;;;;2.83;0.70;;;23.50;99.90;;;;;;5000097;28;20395;-75
2023/07/15 09:40:45;;;;;;;0.47;0.40;;;23.60;99.90;;;;;;5003328;28;20025;-76
2023/07/15 09:43:12;;;;;;;3.88;0.38;;;23.90;99.90;;;;;;4993322;28;20037;-76
2023/07/15 09:45:39;;;;;;;0.85;0.82;;;24.10;99.90;;;;;;4994562;28;20053;-74
2023/07/15 09:48:10;;;;;;;0.68;0.55;;;24.40;99.90;;;;;;5004333;28;20018;-75
2023/07/15 09:50:39;;;;;;;0.10;0.10;;;24.20;99.90;;;;;;5004702;28;20516;-75
2023/07/15 09:53:06;;;;;;;0.20;0.20;;;23.90;99.90;;;;;;4998638;28;20113;-74
2023/07/15 09:55:36;;;;;;;0.75;0.75;;;24.10;99.90;;;;;;4994438;28;20117;-73
2023/07/15 09:58:23;;;;;;;3.40;1.35;;;24.00;99.90;;;;;;4992863;28;20065;-76
2023/07/15 10:01:38;;;;;;;0.47;0.47;;;24.10;99.90;;;;;;5010758;28;20113;-75
2023/07/15 10:04:20;;;;;;;0.10;0.10;;;24.30;99.90;;;;;;4988420;28;20066;-76
2023/07/15 10:06:46;;;;;;;0.32;0.32;;;24.00;99.90;;;;;;4997198;28;20148;-74
2023/07/15 10:09:13;;;;;;;1.80;0.75;;;24.20;99.90;;;;;;4993658;28;20034;-73
2023/07/15 10:11:39;;;;;;;0.60;0.47;;;24.10;99.90;;;;;;5001628;28;20388;-72
2023/07/15 10:14:06;;;;;;;3.30;1.05;;;24.40;99.90;;;;;;4998990;28;20081;-74
2023/07/15 10:16:36;;;;;;;3.20;0.30;;;24.40;99.90;;;;;;4996139;28;20027;-78
2023/07/15 10:19:02;;;;;;;0.32;0.32;;;24.70;99.90;;;;;;4996439;28;20026;-71
2023/07/15 10:21:28;;;;;;;0.50;0.47;;;24.40;99.90;;;;;;4993843;28;20085;-72
2023/07/15 10:24:09;;;;;;;0.10;0.10;;;24.30;99.90;;;;;;5004107;28;20387;-73
2023/07/15 10:26:35;;;;;;;0.90;0.32;;;24.40;99.90;;;;;;5001349;28;20030;-72
2023/07/15 10:29:02;;;;;;;13.80;0.65;;;24.30;99.90;;;;;;4994032;28;20026;-72
2023/07/15 10:31:27;;;;;;;0.60;0.60;;;24.20;99.90;;;;;;4994914;28;20030;-74
2023/07/15 10:33:58;;;;;;;0.98;0.70;;;23.80;99.90;;;;;;5000022;28;20390;-73
2023/07/15 10:36:40;;;;;;;0.83;0.47;;;23.70;99.90;;;;;;5002694;28;20081;-71
2023/07/15 10:39:19;;;;;;;0.40;0.40;;;23.60;99.90;;;;;;4999735;28;20044;-72
2023/07/15 10:41:46;;;;;;;1.67;0.52;;;23.60;99.90;;;;;;4996432;28;20089;-72
2023/07/15 10:44:22;;;;;;;1.38;0.70;;;23.60;99.90;;;;;;4993849;28;20030;-71
2023/07/15 10:47:01;;;;;;;0.20;0.20;;;23.50;99.90;;;;;;4997752;28;20533;-71
2023/07/15 10:49:27;;;;;;;0.75;0.32;;;23.80;99.90;;;;;;4991332;28;20039;-73
2023/07/15 10:51:54;;;;;;;0.40;0.40;;;23.80;99.90;;;;;;4992529;28;21580;-74
2023/07/15 10:54:25;;;;;;;0.22;0.22;;;23.90;99.90;;;;;;4993633;28;20117;-74
2023/07/15 10:56:53;;;;;;;0.63;0.40;;;23.80;99.90;;;;;;4994102;28;20046;-74
2023/07/15 10:59:21;;;;;;;0.10;0.10;;;23.80;99.90;;;;;;4994231;28;20110;-74
2023/07/15 11:01:47;;;;;;;0.55;0.45;;;23.80;99.90;;;;;;4994053;28;20034;-74
2023/07/15 11:04:18;;;;;;;2.30;0.90;;;23.70;99.90;;;;;;4994045;28;20124;-74
2023/07/15 11:06:43;;;;;;;1.77;0.57;;;23.70;99.90;;;;;;4993922;28;20042;-74
2023/07/15 11:09:14;;;;;;;2.65;0.30;;;23.60;99.90;;;;;;4992997;28;20092;-74
2023/07/15 11:11:40;;;;;;;0.32;0.32;;;23.40;99.90;;;;;;4993742;28;20092;-74
2023/07/15 11:14:05;;;;;;;0.52;0.50;;;23.90;99.90;;;;;;4993424;28;20479;-73
2023/07/15 11:16:35;;;;;;;1.25;0.38;;;24.20;99.90;;;;;;4994142;28;20411;-74
2023/07/15 11:19:01;;;;;;;0.10;0.10;;;24.40;99.90;;;;;;4993576;28;20038;-74
2023/07/15 11:21:27;;;;;;;6.05;1.30;;;24.60;99.90;;;;;;4993810;28;20068;-73
2023/07/15 11:23:53;;;;;;;0.17;0.17;;;24.80;99.90;;;;;;4992868;28;20034;-74
2023/07/15 11:26:24;;;;;;;1.15;0.88;;;25.00;99.90;;;;;;4993236;28;20026;-74
2023/07/15 11:28:50;;;;;;;0.38;0.30;;;24.70;99.90;;;;;;4993534;28;20034;-74
2023/07/15 11:31:20;;;;;;;1.05;0.65;;;24.50;99.90;;;;;;4994665;28;20153;-74
2023/07/15 11:33:57;;;;;;;1.50;1.00;;;25.20;99.90;;;;;;4993523;28;20043;-74
2023/07/15 11:36:22;;;;;;;0.35;0.35;;;25.40;99.90;;;;;;4993549;28;20023;-74
2023/07/15 11:38:48;;;;;;;0.85;0.20;;;25.60;99.90;;;;;;4993458;28;20087;-73
2023/07/15 11:41:14;;;;;;;1.70;0.70;;;25.70;99.90;;;;;;4993084;28;20475;-74
2023/07/15 11:43:40;;;;;;;0.85;0.52;;;25.70;99.90;;;;;;4993556;28;20573;-74
2023/07/15 11:46:06;;;;;;;0.35;0.25;;;25.70;99.90;;;;;;4991934;28;20145;-73
2023/07/15 11:48:33;;;;;;;0.55;0.52;;;25.90;99.90;;;;;;4993306;28;20030;-74
2023/07/15 11:51:06;;;;;;;1.40;0.73;;;26.40;99.90;;;;;;4992048;28;20041;-74
2023/07/15 11:53:33;;;;;;;5.55;1.33;;;26.30;99.90;;;;;;4992120;28;20472;-74
2023/07/15 11:56:00;;;;;;;2.08;0.80;;;26.30;99.90;;;;;;4991490;28;20391;-73
2023/07/15 11:58:38;;;;;;;0.30;0.30;;;26.20;99.90;;;;;;4996081;28;20026;-74
2023/07/15 12:01:05;;;;;;;0.20;0.20;;;26.40;99.90;;;;;;4992496;28;20078;-74
2023/07/15 12:03:31;;;;;;;0.85;0.63;;;26.80;99.90;;;;;;4989725;28;20030;-73
2023/07/15 12:05:57;;;;;;;0.75;0.40;;;26.20;99.90;;;;;;4993141;28;20398;-74
2023/07/15 12:08:23;;;;;;;1.45;0.95;;;26.00;99.90;;;;;;4993019;28;20110;-74
2023/07/15 12:10:50;;;;;;;1.02;0.50;;;25.70;99.90;;;;;;4992865;28;20499;-74
2023/07/15 12:13:16;;;;;;;1.65;0.55;;;25.40;99.90;;;;;;4992915;28;20096;-73
2023/07/15 12:15:42;;;;;;;4.30;1.05;;;25.80;99.90;;;;;;4993000;28;20019;-73
2023/07/15 12:18:08;;;;;;;0.80;0.50;;;25.70;99.90;;;;;;4993131;28;20442;-74
2023/07/15 12:20:34;;;;;;;1.95;0.73;;;25.30;99.90;;;;;;4992852;28;20037;-73
2023/07/15 12:22:59;;;;;;;0.52;0.52;;;25.50;99.90;;;;;;4992736;28;20045;-74
2023/07/15 12:25:25;;;;;;;1.02;0.55;;;25.70;99.90;;;;;;4991779;28;20038;-73
2023/07/15 12:27:51;;;;;;;1.88;0.68;;;26.20;99.90;;;;;;4991877;28;20050;-73
2023/07/15 12:30:17;;;;;;;1.00;0.55;;;27.00;98.30;;;;;;4992783;28;20057;-73
2023/07/15 12:32:43;;;;;;;6.07;0.98;;;26.40;98.70;;;;;;4993010;28;20471;-73
2023/07/15 12:35:08;;;;;;;0.68;0.45;;;26.30;98.40;;;;;;4992720;28;20475;-73
2023/07/15 12:37:35;;;;;;;0.03;0.03;;;26.20;99.20;;;;;;4992746;28;20030;-73
2023/07/15 12:40:03;;;;;;;1.50;0.77;;;26.50;99.40;;;;;;4992924;28;20026;-73
2023/07/15 12:42:29;;;;;;;0.45;0.20;;;26.20;98.90;;;;;;4990954;28;20023;-73
2023/07/15 12:44:55;;;;;;;19.67;0.98;;;26.40;99.10;;;;;;4986575;28;20071;-73
2023/07/15 12:47:21;;;;;;;0.25;0.25;;;26.50;98.70;;;;;;4992951;28;20045;-74
2023/07/15 12:49:47;;;;;;;0.70;0.52;;;26.90;98.50;;;;;;4992703;28;20050;-73